Parkersburg, Iowa
Current Conditions -  °F | °C
As of 9:54 PM on Wednesday 22 Oct 2014 (Local Time) from KALO Reporting Station
Overcast Overcast  
Wind Chill: 55°   Ceiling: 3500
Heat Index: 55°   Visibility: 10mi
Dew Point: 39°   Wind: 15mph
Humidity: 55%   Direction: 160°SSE
Pressure: 30.14"   Gusts: 24mph
Location:  42.58°N, 92.79°W
Report Text: KALO 230254Z 16013G21KT 10SM BKN035 OVC050 13/04 A3014 RMK AO2 SLP211 T01280039 55002
Loading
Personal Weather Stations






























Interactive Weather Map
Tropical Storm Tracking
New forecast layout! Learn more

10-Day Weather Forecast

Advertisements
Track Severe Weather on mobile